Terminal Aerodrome Forecast
Issued by NWS Twin Cities, MN

Home | Current Version | Previous Version | Text Only | Print | Product List | Glossary On
Versions: 1 2 3 4 5 6 7 8 9 10 11 12 13 14
000
FTUS43 KMPX 171100
TAFSTC
TAF
KSTC 171120Z 1712/1812 09004KT 6SM BR VCSH SCT004 OVC012
      TEMPO 1713/1717 3SM SHRA OVC009
     FM172000 12006KT P6SM SCT020 OVC040
     FM180500 09003KT 6SM HZ SCT010 BKN030
     FM180800 14005KT 4SM BR SCT003 OVC010=

USA.gov is the U.S. government's official web portal to all federal, state and local government web resources and services.